Time;durP1;ratioP1;P1;durP2;ratioP2;P2;SDS_P1;SDS_P2;PMS_P1;PMS_P2;Temp;Humidity;BMP_temperature;BMP_pressure;BME280_temperature;BME280_humidity;BME280_pressure;Samples;Min_cycle;Max_cycle;Signal;HPM_P1;HPM_P2
2023/08/19 00:01:05;;;;;;;4.90;4.60;;;;;;;22.65;85.43;100869.63;84284;283;138689;-63
2023/08/19 00:03:07;;;;;;;4.20;3.80;;;;;;;22.70;85.31;100868.27;84452;281;25168;-64
2023/08/19 00:05:09;;;;;;;5.70;5.00;;;;;;;22.73;85.23;100868.67;84234;281;137420;-62
2023/08/19 00:07:11;;;;;;;5.40;5.10;;;;;;;22.76;85.03;100871.81;84491;281;22552;-60
2023/08/19 00:09:13;;;;;;;5.70;4.50;;;;;;;22.76;84.90;100870.05;84347;282;137013;-60
2023/08/19 00:11:15;;;;;;;5.20;4.70;;;;;;;22.82;85.10;100870.34;84320;282;22508;-63
2023/08/19 00:13:19;;;;;;;6.20;5.60;;;;;;;22.82;84.49;100871.26;84303;251;137093;-62
2023/08/19 00:15:21;;;;;;;4.30;3.90;;;;;;;22.84;84.26;100867.36;84365;271;22694;-64
2023/08/19 00:17:24;;;;;;;4.70;4.30;;;;;;;22.88;84.44;100867.45;84219;282;138369;-62
2023/08/19 00:19:26;;;;;;;4.80;4.40;;;;;;;22.85;84.87;100864.45;84414;282;24482;-62
2023/08/19 00:21:28;;;;;;;8.20;5.40;;;;;;;22.79;85.23;100866.79;84108;281;137178;-65
2023/08/19 00:23:30;;;;;;;5.30;4.80;;;;;;;22.72;85.49;100863.83;84481;281;22560;-63
2023/08/19 00:25:33;;;;;;;6.30;5.00;;;;;;;22.62;85.99;100864.11;84409;281;136918;-62
2023/08/19 00:27:37;;;;;;;5.20;4.70;;;;;;;22.53;86.32;100864.61;84369;281;22641;-64
2023/08/19 00:29:39;;;;;;;4.80;4.50;;;;;;;22.44;87.25;100865.00;84236;271;137104;-63
2023/08/19 00:31:40;;;;;;;6.60;5.40;;;;;;;22.38;88.11;100865.48;84276;281;25334;-72
2023/08/19 00:33:42;;;;;;;4.70;4.40;;;;;;;22.21;88.70;100858.38;84246;281;137249;-68
2023/08/19 00:35:44;;;;;;;7.10;5.30;;;;;;;22.19;90.31;100862.45;84326;282;24141;-67
2023/08/19 00:37:46;;;;;;;6.20;5.80;;;;;;;22.15;90.89;100860.39;84224;282;137058;-59
2023/08/19 00:39:49;;;;;;;6.10;5.50;;;;;;;22.07;91.27;100858.39;84235;284;25294;-62
2023/08/19 00:41:53;;;;;;;7.00;5.40;;;;;;;22.01;91.52;100854.52;84320;281;138117;-62
2023/08/19 00:43:55;;;;;;;7.60;5.20;;;;;;;22.00;92.46;100852.66;84417;281;22547;-64
2023/08/19 00:45:59;;;;;;;;;;;;;;;22.00;93.08;100854.24;84334;282;136733;-66
2023/08/19 00:48:02;;;;;;;5.20;4.70;;;;;;;22.01;93.30;100850.95;84400;282;22568;-63
2023/08/19 00:50:10;;;;;;;5.50;5.00;;;;;;;21.99;93.36;100849.99;84378;282;25156;-64
2023/08/19 00:52:13;;;;;;;5.10;4.50;;;;;;;22.04;93.38;100855.46;84235;282;137070;-61
2023/08/19 00:54:14;;;;;;;6.50;6.00;;;;;;;22.03;93.80;100854.48;84393;282;26343;-63
2023/08/19 00:56:18;;;;;;;5.20;4.80;;;;;;;21.93;93.61;100855.55;84354;282;137157;-62
2023/08/19 00:58:22;;;;;;;5.80;5.40;;;;;;;21.88;93.85;100853.44;84448;282;22577;-66
2023/08/19 01:00:25;;;;;;;6.90;5.40;;;;;;;21.88;94.62;100853.92;84299;281;137019;-64
2023/08/19 01:02:27;;;;;;;5.30;4.90;;;;;;;21.86;94.94;100848.09;84400;281;23001;-64
2023/08/19 01:04:29;;;;;;;5.60;5.20;;;;;;;21.87;94.88;100849.41;84273;281;137130;-63
2023/08/19 01:06:43;;;;;;;6.10;5.60;;;;;;;21.82;95.14;100846.84;84444;282;25297;-63
2023/08/19 01:09:10;;;;;;;5.50;5.10;;;;;;;21.75;95.82;100846.09;84337;282;137243;-63
2023/08/19 01:11:18;;;;;;;6.10;5.60;;;;;;;21.77;96.17;100844.82;84296;282;22586;-62
2023/08/19 01:13:27;;;;;;;6.20;5.70;;;;;;;21.86;96.15;100845.48;84251;282;137046;-63
2023/08/19 01:15:34;;;;;;;6.90;4.70;;;;;;;21.90;95.75;100844.50;84106;282;372932;-63
2023/08/19 01:17:36;;;;;;;5.20;4.80;;;;;;;21.94;95.72;100851.55;84244;281;137130;-65
2023/08/19 01:19:41;;;;;;;5.60;5.10;;;;;;;21.93;95.84;100846.39;84278;283;23747;-62
2023/08/19 01:21:43;;;;;;;;;;;;;;;21.95;95.68;100847.61;84174;283;137131;-64
2023/08/19 01:23:47;;;;;;;6.70;5.10;;;;;;;22.01;95.43;100846.64;84184;282;25274;-64
2023/08/19 01:25:49;;;;;;;;;;;;;;;22.08;95.38;100847.82;84232;282;138515;-63
2023/08/19 01:27:53;;;;;;;5.80;5.30;;;;;;;22.13;94.75;100849.84;84364;282;22677;-64
2023/08/19 01:29:55;;;;;;;6.90;5.00;;;;;;;22.12;94.67;100849.79;84162;278;136850;-65
2023/08/19 01:31:58;;;;;;;5.80;5.30;;;;;;;22.18;94.44;100853.38;84178;283;22643;-62
2023/08/19 01:34:00;;;;;;;6.40;5.70;;;;;;;22.25;94.29;100851.04;84350;281;136641;-62
2023/08/19 01:36:11;;;;;;;5.50;5.10;;;;;;;22.19;94.37;100850.57;84277;282;25154;-62
2023/08/19 01:38:23;;;;;;;6.20;5.70;;;;;;;22.10;95.26;100846.77;84230;282;25136;-62
2023/08/19 01:40:27;;;;;;;6.40;5.90;;;;;;;22.07;95.25;100848.02;84055;282;137910;-61
2023/08/19 01:42:29;;;;;;;5.10;4.70;;;;;;;21.93;95.96;100846.66;84311;282;22549;-60
2023/08/19 01:44:32;;;;;;;11.40;6.10;;;;;;;21.87;97.04;100845.00;84352;282;137125;-62
2023/08/19 01:46:35;;;;;;;7.60;5.90;;;;;;;21.91;97.56;100846.30;84426;282;22551;-65
2023/08/19 01:48:37;;;;;;;7.00;5.40;;;;;;;21.94;97.29;100843.36;84360;281;136942;-63
2023/08/19 01:50:38;;;;;;;8.20;5.30;;;;;;;21.89;97.57;100843.48;84399;281;25327;-70
2023/08/19 01:52:40;;;;;;;7.10;6.50;;;;;;;21.87;97.54;100844.08;84278;282;136617;-61
2023/08/19 01:54:42;;;;;;;9.80;6.00;;;;;;;21.74;97.95;100848.67;84167;283;22548;-61
2023/08/19 01:56:45;;;;;;;6.00;5.40;;;;;;;21.67;99.70;100849.56;84269;283;136811;-62
2023/08/19 01:58:47;;;;;;;6.10;5.40;;;;;;;21.61;100.00;100851.55;84259;283;22553;-62
2023/08/19 02:00:49;;;;;;;5.00;4.70;;;;;;;21.61;100.00;100847.14;84125;282;136522;-60
2023/08/19 02:02:51;;;;;;;5.50;5.10;;;;;;;21.67;100.00;100845.59;84311;282;25246;-72
2023/08/19 02:04:53;;;;;;;6.20;5.80;;;;;;;21.77;100.00;100846.61;84230;282;137249;-60
2023/08/19 02:06:55;;;;;;;6.80;6.10;;;;;;;21.86;99.52;100847.55;84351;282;23728;-61
2023/08/19 02:08:57;;;;;;;5.50;5.10;;;;;;;21.88;99.12;100846.38;84101;282;138598;-63
2023/08/19 02:10:59;;;;;;;5.50;5.20;;;;;;;21.96;98.76;100846.20;84110;283;22691;-59
2023/08/19 02:13:01;;;;;;;5.70;5.30;;;;;;;22.10;97.49;100846.39;84226;282;137146;-63
2023/08/19 02:15:03;;;;;;;5.80;5.20;;;;;;;22.09;96.29;100848.06;84276;282;22550;-62
2023/08/19 02:17:05;;;;;;;6.10;5.60;;;;;;;21.96;96.63;100854.68;84210;283;138751;-62
2023/08/19 02:19:09;;;;;;;5.80;5.40;;;;;;;21.80;97.82;100848.87;84285;282;25294;-62
2023/08/19 02:21:12;;;;;;;5.10;4.80;;;;;;;21.71;98.28;100852.42;84120;283;137395;-62
2023/08/19 02:23:13;;;;;;;5.70;5.30;;;;;;;21.68;98.68;100851.80;84337;282;22653;-63
2023/08/19 02:25:15;;;;;;;6.90;6.20;;;;;;;21.65;99.11;100850.06;84301;281;137298;-65
2023/08/19 02:27:17;;;;;;;6.70;6.20;;;;;;;21.56;99.09;100849.95;84356;281;25286;-62
2023/08/19 02:29:19;;;;;;;9.70;6.20;;;;;;;21.43;99.08;100854.69;84269;282;138484;-62
2023/08/19 02:31:20;;;;;;;6.00;5.60;;;;;;;21.31;99.74;100857.66;84272;283;24139;-65
2023/08/19 02:33:23;;;;;;;6.40;5.80;;;;;;;21.21;100.00;100854.98;84174;282;137222;-63
2023/08/19 02:35:25;;;;;;;6.90;6.20;;;;;;;21.22;100.00;100855.25;84269;282;22548;-69
2023/08/19 02:37:27;;;;;;;9.50;5.90;;;;;;;21.27;100.00;100856.48;84182;281;137284;-66
2023/08/19 02:39:29;;;;;;;7.60;6.90;;;;;;;21.32;100.00;100862.02;84372;282;22565;-61
2023/08/19 02:41:31;;;;;;;7.20;6.40;;;;;;;21.33;100.00;100859.73;84234;282;138568;-61
2023/08/19 02:43:34;;;;;;;7.40;6.40;;;;;;;21.36;100.00;100865.95;84556;282;22656;-57
2023/08/19 02:45:40;;;;;;;6.50;6.00;;;;;;;21.38;100.00;100865.70;84410;282;137172;-58
2023/08/19 02:47:42;;;;;;;7.00;6.40;;;;;;;21.38;100.00;100866.09;84474;282;25293;-61
2023/08/19 02:49:43;;;;;;;12.30;5.70;;;;;;;21.40;100.00;100872.45;84475;282;137201;-60
2023/08/19 02:51:45;;;;;;;6.20;5.60;;;;;;;21.37;100.00;100873.52;84344;283;25227;-63
2023/08/19 02:53:47;;;;;;;6.00;5.60;;;;;;;21.44;100.00;100871.29;84247;278;137286;-63
2023/08/19 02:55:52;;;;;;;6.60;6.10;;;;;;;21.53;100.00;100873.61;84460;281;22560;-64
2023/08/19 02:57:54;;;;;;;6.30;5.70;;;;;;;21.61;100.00;100877.64;84500;282;137171;-62
2023/08/19 02:59:56;;;;;;;7.10;6.40;;;;;;;21.64;100.00;100873.55;84390;281;22655;-65
2023/08/19 03:02:00;;;;;;;8.50;5.50;;;;;;;21.69;99.53;100876.63;84267;278;137264;-62
2023/08/19 03:04:02;;;;;;;6.80;6.00;;;;;;;21.64;99.94;100882.45;84206;282;22550;-63
2023/08/19 03:06:04;;;;;;;6.80;6.20;;;;;;;21.63;99.46;100883.30;84280;282;24189;-63
2023/08/19 03:08:08;;;;;;;7.40;6.80;;;;;;;21.59;99.73;100888.73;84156;282;138694;-60
2023/08/19 03:10:10;;;;;;;6.40;5.90;;;;;;;21.54;99.83;100888.55;84291;271;23844;-58
2023/08/19 03:12:12;;;;;;;6.90;5.50;;;;;;;21.48;99.97;100884.23;84201;283;137376;-59
2023/08/19 03:14:14;;;;;;;9.00;7.30;;;;;;;21.49;100.00;100883.15;84340;282;25246;-76
2023/08/19 03:16:16;;;;;;;6.50;5.90;;;;;;;21.54;100.00;100885.23;84179;281;137235;-75
2023/08/19 03:18:18;;;;;;;5.70;5.30;;;;;;;21.57;100.00;100882.57;84260;282;22544;-76
2023/08/19 03:20:20;;;;;;;7.00;5.30;;;;;;;21.67;100.00;100881.63;84098;284;138289;-77
2023/08/19 03:22:22;;;;;;;12.30;5.70;;;;;;;21.90;99.65;100881.02;84284;281;24056;-77
2023/08/19 03:24:24;;;;;;;5.30;4.80;;;;;;;22.09;98.41;100875.57;84029;283;137416;-77
2023/08/19 03:26:26;;;;;;;5.60;5.30;;;;;;;22.28;97.39;100871.55;84146;283;24034;-78
2023/08/19 03:28:29;;;;;;;6.60;6.00;;;;;;;22.59;95.76;100871.69;84147;281;136722;-79
2023/08/19 03:30:31;;;;;;;6.10;5.50;;;;;;;22.92;93.34;100873.69;84272;281;22808;-78
2023/08/19 03:32:33;;;;;;;6.30;5.70;;;;;;;23.23;91.16;100872.30;84182;282;138223;-76
2023/08/19 03:34:36;;;;;;;7.10;6.50;;;;;;;23.56;88.91;100872.59;84211;283;23702;-77
2023/08/19 03:36:38;;;;;;;6.30;5.80;;;;;;;23.90;86.63;100874.41;84094;283;138620;-76
2023/08/19 03:38:40;;;;;;;5.80;5.40;;;;;;;24.21;84.35;100868.07;84286;282;22632;-78
2023/08/19 03:40:43;;;;;;;5.50;5.10;;;;;;;24.48;82.57;100864.94;84179;283;136919;-79
2023/08/19 03:42:45;;;;;;;8.00;5.80;;;;;;;24.84;80.44;100865.19;84335;282;22554;-79
2023/08/19 03:44:47;;;;;;;8.90;6.10;;;;;;;25.17;78.13;100867.34;84132;282;136361;-77
2023/08/19 03:46:48;;;;;;;8.90;7.00;;;;;;;25.39;76.80;100861.89;84443;281;24123;-80
2023/08/19 03:48:50;;;;;;;6.90;6.10;;;;;;;25.55;75.25;100863.34;84202;282;136467;-81
2023/08/19 03:50:52;;;;;;;7.70;5.80;;;;;;;25.64;74.53;100864.37;84299;282;23722;-81
2023/08/19 03:52:54;;;;;;;7.40;6.60;;;;;;;25.84;73.66;100867.16;84219;282;137885;-80
2023/08/19 03:54:56;;;;;;;7.40;6.80;;;;;;;26.08;72.29;100863.94;84258;283;24147;-81
2023/08/19 03:56:57;;;;;;;7.40;6.50;;;;;;;26.20;71.08;100866.23;84224;283;137004;-77
2023/08/19 03:58:59;;;;;;;6.90;5.70;;;;;;;26.23;70.68;100864.25;84371;282;26354;-78
2023/08/19 04:01:07;;;;;;;4.90;4.60;;;;;;;26.33;69.84;100860.86;84041;283;136530;-71
2023/08/19 04:03:12;;;;;;;5.90;5.50;;;;;;;26.44;68.60;100860.75;84522;285;22829;-79
2023/08/19 04:05:14;;;;;;;5.70;5.20;;;;;;;26.43;67.62;100860.52;84118;282;136551;-78
2023/08/19 04:07:15;;;;;;;5.40;5.00;;;;;;;26.40;67.17;100865.69;84211;281;22547;-74
2023/08/19 04:09:17;;;;;;;5.50;5.00;;;;;;;26.45;66.85;100864.56;84106;283;135982;-77
2023/08/19 04:11:19;;;;;;;5.50;5.00;;;;;;;26.41;67.10;100851.48;84193;282;24094;-79
2023/08/19 04:13:21;;;;;;;5.50;4.90;;;;;;;26.68;66.60;100869.05;84230;283;136310;-76
2023/08/19 04:15:23;;;;;;;6.20;5.80;;;;;;;26.90;65.96;100869.98;84218;282;25255;-71
2023/08/19 04:17:25;;;;;;;6.30;5.80;;;;;;;27.12;64.64;100867.52;83979;283;137318;-75
2023/08/19 04:19:27;;;;;;;5.60;5.20;;;;;;;27.31;63.97;100873.89;84174;282;24113;-80
2023/08/19 04:21:28;;;;;;;7.40;6.50;;;;;;;27.50;63.08;100870.77;84160;282;137934;-79
2023/08/19 04:23:32;;;;;;;7.90;7.10;;;;;;;27.58;62.34;100869.54;84283;281;22704;-76
2023/08/19 04:25:34;;;;;;;6.90;6.30;;;;;;;27.66;62.06;100864.23;84090;283;136503;-79
2023/08/19 04:27:36;;;;;;;6.30;5.70;;;;;;;27.78;61.48;100864.94;84235;283;25278;-78
2023/08/19 04:29:40;;;;;;;6.10;5.60;;;;;;;28.01;61.10;100862.17;84217;275;136490;-74
2023/08/19 04:31:42;;;;;;;6.60;5.90;;;;;;;28.29;59.92;100860.48;84421;282;25376;-75
2023/08/19 04:33:45;;;;;;;6.40;5.80;;;;;;;28.56;58.61;100861.13;84598;282;136094;-81
2023/08/19 04:35:48;;;;;;;8.50;4.90;;;;;;;28.80;58.10;100861.93;84231;282;22689;-79
2023/08/19 04:37:50;;;;;;;6.10;5.10;;;;;;;29.06;56.92;100860.92;84233;282;136503;-81
2023/08/19 04:39:53;;;;;;;6.10;5.60;;;;;;;29.25;55.50;100858.02;84263;282;22726;-68
2023/08/19 04:42:00;;;;;;;6.40;5.10;;;;;;;29.41;54.99;100858.36;84132;283;136758;-74
2023/08/19 04:44:04;;;;;;;6.10;5.40;;;;;;;29.57;54.52;100860.89;84009;282;136759;-68
2023/08/19 04:46:07;;;;;;;5.60;4.40;;;;;;;29.70;54.16;100856.87;84267;283;24277;-80
2023/08/19 04:48:09;;;;;;;6.30;5.60;;;;;;;29.87;53.49;100852.40;84088;285;136643;-77
2023/08/19 04:50:11;;;;;;;7.20;5.30;;;;;;;30.03;52.84;100855.23;86777;281;24970;-80
2023/08/19 04:52:13;;;;;;;6.00;4.60;;;;;;;30.10;52.53;100854.66;84097;280;137984;-73
2023/08/19 04:54:15;;;;;;;4.50;4.20;;;;;;;30.11;52.28;100841.66;84140;283;22624;-75
2023/08/19 04:56:16;;;;;;;6.50;4.40;;;;;;;30.19;52.04;100846.81;84547;282;136367;-79
2023/08/19 04:58:19;;;;;;;5.00;4.60;;;;;;;30.25;52.22;100847.89;85366;282;23873;-76
2023/08/19 05:00:21;;;;;;;5.30;4.80;;;;;;;30.38;51.29;100842.48;85422;282;136138;-71
2023/08/19 05:02:23;;;;;;;5.20;4.40;;;;;;;30.31;51.15;100847.83;85711;280;22649;-76
2023/08/19 05:04:25;;;;;;;4.80;3.80;;;;;;;30.19;51.75;100848.91;85660;281;136326;-78
2023/08/19 05:06:28;;;;;;;5.60;5.10;;;;;;;30.38;51.36;100850.32;85386;278;25164;-76
2023/08/19 05:08:31;;;;;;;6.20;4.10;;;;;;;30.55;50.83;100846.11;84791;282;136257;-75
2023/08/19 05:10:35;;;;;;;5.50;4.90;;;;;;;30.62;51.16;100844.52;85118;282;23710;-73
2023/08/19 05:12:36;;;;;;;5.40;4.00;;;;;;;30.75;50.53;100849.15;84772;282;136123;-70
2023/08/19 05:14:38;;;;;;;5.10;4.10;;;;;;;30.86;50.13;100849.92;84443;282;24137;-76
2023/08/19 05:19:18;;;;;;;4.30;3.80;;;;;;;30.80;50.03;100848.48;82641;306;546851;-76
2023/08/19 05:21:21;;;;;;;5.50;5.00;;;;;;;30.78;50.27;100851.73;83455;297;135802;-71
2023/08/19 05:23:23;;;;;;;4.50;4.10;;;;;;;30.78;50.35;100849.56;83458;297;22570;-76
2023/08/19 05:25:25;;;;;;;4.80;4.30;;;;;;;30.73;50.45;100853.60;83220;297;136412;-75
2023/08/19 05:27:27;;;;;;;4.10;3.90;;;;;;;30.77;50.64;100856.92;83418;296;22588;-72
2023/08/19 05:29:30;;;;;;;5.20;4.60;;;;;;;30.83;50.29;100856.98;83365;296;134757;-77
2023/08/19 05:31:32;;;;;;;5.60;4.70;;;;;;;30.93;49.82;100857.29;83414;296;25298;-78
2023/08/19 05:33:34;;;;;;;5.40;4.80;;;;;;;30.91;49.74;100854.16;83225;288;476023;-68
2023/08/19 05:35:36;;;;;;;4.20;4.00;;;;;;;30.62;50.44;100858.48;83438;296;22557;-75
2023/08/19 05:37:38;;;;;;;5.20;4.80;;;;;;;30.36;51.22;100862.27;83459;294;136668;-76
2023/08/19 05:39:40;;;;;;;6.30;4.80;;;;;;;30.27;51.87;100863.46;83387;294;22562;-72
2023/08/19 05:41:43;;;;;;;7.80;4.20;;;;;;;30.34;52.05;100865.65;83439;295;135835;-75
2023/08/19 05:43:45;;;;;;;5.60;4.80;;;;;;;30.44;51.99;100863.08;83414;294;22563;-76
2023/08/19 05:45:46;;;;;;;5.00;4.60;;;;;;;30.52;51.92;100867.50;83753;277;135877;-76
2023/08/19 05:47:49;;;;;;;5.70;5.20;;;;;;;30.74;52.06;100863.25;83919;281;23180;-73
2023/08/19 05:49:52;;;;;;;4.80;4.50;;;;;;;30.99;50.87;100863.63;83761;289;135555;-73
2023/08/19 05:51:55;;;;;;;5.10;4.70;;;;;;;31.09;49.93;100868.00;83773;280;22566;-75
2023/08/19 05:54:00;;;;;;;5.30;4.90;;;;;;;31.09;49.91;100868.22;83882;288;137050;-76
2023/08/19 05:56:02;;;;;;;5.10;4.50;;;;;;;31.13;49.98;100867.50;83915;289;136526;-70
2023/08/19 05:58:04;;;;;;;4.50;4.00;;;;;;;31.21;49.60;100867.61;83902;288;22788;-76
2023/08/19 06:00:13;;;;;;;6.20;4.00;;;;;;;31.15;49.79;100867.84;83816;288;136178;-74
2023/08/19 06:02:14;;;;;;;5.40;4.30;;;;;;;31.17;50.01;100866.46;83891;288;22866;-75
2023/08/19 06:04:17;;;;;;;4.10;3.70;;;;;;;31.28;49.95;100863.31;83768;288;136300;-70
2023/08/19 06:06:19;;;;;;;3.90;3.70;;;;;;;31.40;49.50;100860.79;83793;289;26358;-78
2023/08/19 06:08:21;;;;;;;4.20;3.80;;;;;;;31.50;48.95;100859.41;83763;288;137299;-62
2023/08/19 06:10:23;;;;;;;4.00;3.70;;;;;;;31.67;48.90;100864.35;83725;291;22574;-66
2023/08/19 06:12:24;;;;;;;4.80;4.30;;;;;;;31.89;48.20;100864.16;83664;288;136753;-65
2023/08/19 06:14:26;;;;;;;4.10;3.80;;;;;;;31.91;47.78;100863.15;83827;288;22730;-64
2023/08/19 06:16:28;;;;;;;4.30;4.00;;;;;;;31.69;48.25;100865.55;83663;288;136072;-59
2023/08/19 06:18:34;;;;;;;6.20;3.80;;;;;;;31.62;48.70;100864.91;83823;288;22555;-61
2023/08/19 06:20:36;;;;;;;5.40;4.40;;;;;;;31.61;48.73;100860.52;84005;288;137264;-63
2023/08/19 06:22:38;;;;;;;5.20;4.30;;;;;;;31.63;48.80;100858.13;83852;289;24105;-67
2023/08/19 06:24:40;;;;;;;5.10;3.90;;;;;;;31.60;48.70;100862.05;83479;286;136036;-66
2023/08/19 06:26:42;;;;;;;7.60;4.40;;;;;;;31.46;49.24;100859.89;83615;288;25164;-66
2023/08/19 06:28:44;;;;;;;4.70;4.50;;;;;;;31.35;49.82;100865.85;83441;288;136596;-67
2023/08/19 06:30:47;;;;;;;5.50;5.00;;;;;;;31.34;49.98;100867.56;83534;290;24796;-64
2023/08/19 06:32:49;;;;;;;6.10;4.20;;;;;;;31.27;49.88;100865.70;83537;289;136363;-66
2023/08/19 06:34:51;;;;;;;6.50;4.20;;;;;;;31.29;50.25;100867.15;86614;289;23254;-63
2023/08/19 06:36:56;;;;;;;5.40;4.90;;;;;;;31.47;49.88;100866.47;86460;288;135971;-61
2023/08/19 06:39:31;;;;;;;4.40;4.00;;;;;;;31.66;49.47;100864.11;84056;288;22606;-61
2023/08/19 06:41:39;;;;;;;5.10;4.80;;;;;;;31.65;49.09;100866.77;83746;288;136291;-64
2023/08/19 06:43:42;;;;;;;4.70;4.10;;;;;;;31.48;49.71;100868.66;83855;288;22819;-63
2023/08/19 06:45:46;;;;;;;5.20;4.80;;;;;;;31.47;49.78;100865.98;83714;289;136183;-63
2023/08/19 06:47:52;;;;;;;4.30;3.90;;;;;;;31.51;49.67;100868.26;84180;289;26214;-62
2023/08/19 06:49:54;;;;;;;7.70;4.10;;;;;;;31.52;49.92;100869.04;83829;288;136313;-64
2023/08/19 06:51:57;;;;;;;4.40;3.80;;;;;;;31.59;50.04;100873.81;84077;288;22580;-75
2023/08/19 06:53:59;;;;;;;5.00;4.60;;;;;;;31.65;49.90;100875.33;84096;288;138406;-64
2023/08/19 06:56:12;;;;;;;4.20;3.90;;;;;;;31.69;49.49;100878.19;84197;284;22669;-66
2023/08/19 06:58:22;;;;;;;9.00;4.10;;;;;;;31.64;49.34;100880.46;84063;284;25181;-63
2023/08/19 07:00:24;;;;;;;4.40;4.10;;;;;;;31.64;49.50;100882.45;83977;283;137390;-64
2023/08/19 07:02:28;;;;;;;4.60;4.30;;;;;;;31.74;49.39;100883.36;84068;283;23850;-62
2023/08/19 07:04:32;;;;;;;5.80;5.30;;;;;;;31.71;49.42;100885.48;84030;283;137819;-65
2023/08/19 07:06:36;;;;;;;5.50;5.10;;;;;;;31.60;49.47;100884.36;84190;284;22561;-61
2023/08/19 07:08:40;;;;;;;5.00;4.60;;;;;;;31.50;49.64;100878.91;84194;284;136137;-63
2023/08/19 07:10:42;;;;;;;8.10;5.00;;;;;;;31.40;50.41;100886.80;84072;284;25376;-67
2023/08/19 07:12:47;;;;;;;6.10;5.40;;;;;;;31.35;50.10;100882.48;83915;284;135962;-67
2023/08/19 07:14:49;;;;;;;5.00;3.60;;;;;;;31.30;49.83;100883.09;84099;284;22766;-66
2023/08/19 07:16:52;;;;;;;4.10;3.90;;;;;;;31.19;49.71;100883.99;83984;284;136788;-66
2023/08/19 07:19:01;;;;;;;4.90;4.00;;;;;;;31.06;49.80;100883.16;84251;284;24041;-63
2023/08/19 07:21:04;;;;;;;6.00;4.10;;;;;;;30.86;50.86;100885.27;84127;284;136000;-64
2023/08/19 07:23:08;;;;;;;4.30;3.90;;;;;;;30.69;51.49;100885.77;84186;284;25056;-62
2023/08/19 07:25:10;;;;;;;4.90;4.60;;;;;;;30.50;52.60;100891.76;83901;284;135755;-62
2023/08/19 07:27:14;;;;;;;6.00;4.30;;;;;;;30.31;53.63;100890.06;84229;284;25224;-64
2023/08/19 07:29:16;;;;;;;8.80;5.20;;;;;;;30.15;54.63;100888.70;84277;284;136516;-64
2023/08/19 07:31:20;;;;;;;4.30;4.00;;;;;;;30.14;54.50;100888.28;84071;284;22571;-60
2023/08/19 07:33:22;;;;;;;4.70;4.40;;;;;;;30.12;54.07;100892.83;84006;284;137180;-62
2023/08/19 07:35:24;;;;;;;5.20;4.30;;;;;;;30.17;53.58;100888.23;84010;284;25190;-78
2023/08/19 07:37:25;;;;;;;6.50;4.50;;;;;;;30.14;53.99;100888.33;83985;284;135966;-63
2023/08/19 07:39:28;;;;;;;5.10;4.60;;;;;;;30.07;54.16;100883.58;84011;284;25261;-68
2023/08/19 07:41:30;;;;;;;4.60;4.20;;;;;;;30.04;54.56;100887.05;83946;285;136030;-68
2023/08/19 07:43:32;;;;;;;5.20;4.60;;;;;;;30.08;54.58;100886.85;84187;285;24214;-64
2023/08/19 07:45:35;;;;;;;5.90;5.00;;;;;;;30.14;54.46;100881.70;84019;283;137491;-72
2023/08/19 07:47:37;;;;;;;6.20;4.30;;;;;;;30.14;54.19;100886.25;84126;283;22672;-75
2023/08/19 07:49:39;;;;;;;6.20;4.70;;;;;;;30.03;54.26;100873.98;83917;281;136301;-70
2023/08/19 07:51:40;;;;;;;4.70;4.30;;;;;;;30.04;54.73;100884.30;84078;284;25409;-61
2023/08/19 07:53:42;;;;;;;5.30;4.80;;;;;;;30.02;54.95;100887.09;84028;283;136072;-63
2023/08/19 07:55:44;;;;;;;5.30;4.00;;;;;;;29.99;55.26;100889.58;84100;283;22550;-68
2023/08/19 07:57:46;;;;;;;5.90;4.10;;;;;;;30.00;55.04;100889.11;83993;283;136326;-67
2023/08/19 07:59:48;;;;;;;11.20;4.70;;;;;;;30.03;54.82;100890.60;84331;284;22567;-73
2023/08/19 08:01:50;;;;;;;4.20;3.50;;;;;;;29.96;54.28;100889.81;83926;284;135944;-62
2023/08/19 08:03:53;;;;;;;7.40;3.90;;;;;;;29.89;53.81;100888.23;84180;284;22589;-64
2023/08/19 08:05:54;;;;;;;5.30;4.40;;;;;;;29.88;53.69;100884.41;83920;283;135900;-64
2023/08/19 08:07:56;;;;;;;4.60;4.20;;;;;;;29.94;53.74;100882.71;84062;284;25134;-63
2023/08/19 08:09:58;;;;;;;6.90;4.60;;;;;;;30.01;53.85;100886.98;83924;284;135948;-63
2023/08/19 08:12:00;;;;;;;10.90;4.20;;;;;;;30.05;53.80;100881.15;84061;284;24252;-63
2023/08/19 08:14:02;;;;;;;3.60;3.30;;;;;;;30.06;54.29;100876.98;83925;284;136406;-61
2023/08/19 08:16:04;;;;;;;6.00;4.10;;;;;;;30.12;54.60;100877.17;83877;284;140677;-61
2023/08/19 08:18:06;;;;;;;6.30;3.60;;;;;;;30.18;54.35;100874.02;83933;285;23103;-61
2023/08/19 08:20:08;;;;;;;4.20;3.90;;;;;;;30.23;54.16;100872.96;84086;284;137462;-64
2023/08/19 08:22:10;;;;;;;5.60;3.90;;;;;;;30.32;53.53;100873.73;84466;285;24349;-64
2023/08/19 08:24:12;;;;;;;4.20;3.90;;;;;;;30.38;52.91;100873.11;83970;284;137795;-63
2023/08/19 08:26:14;;;;;;;4.50;4.20;;;;;;;30.33;53.07;100871.84;84106;283;22608;-62
2023/08/19 08:28:16;;;;;;;4.80;4.10;;;;;;;30.26;52.95;100869.53;84055;283;136250;-64
2023/08/19 08:30:18;;;;;;;4.90;3.60;;;;;;;30.22;53.06;100873.05;83975;284;24307;-61
2023/08/19 08:32:20;;;;;;;4.20;3.90;;;;;;;30.24;53.14;100867.83;83950;284;137873;-64
2023/08/19 08:34:22;;;;;;;8.10;4.00;;;;;;;30.27;53.05;100865.63;83969;284;22551;-62
2023/08/19 08:36:24;;;;;;;5.10;3.70;;;;;;;30.26;52.94;100861.89;83875;284;136200;-65
2023/08/19 08:38:26;;;;;;;4.70;4.30;;;;;;;30.21;53.64;100866.40;84033;284;25205;-64
2023/08/19 08:40:32;;;;;;;6.10;3.90;;;;;;;30.21;53.87;100859.55;83980;284;136904;-62
2023/08/19 08:42:34;;;;;;;6.40;4.00;;;;;;;30.20;53.73;100853.88;84079;284;22556;-66
2023/08/19 08:44:37;;;;;;;4.40;4.10;;;;;;;30.38;52.98;100863.92;83991;284;136353;-62
2023/08/19 08:46:39;;;;;;;4.20;3.90;;;;;;;30.51;52.31;100853.90;84504;285;26330;-61
2023/08/19 08:48:43;;;;;;;8.90;3.60;;;;;;;30.59;51.89;100855.64;83789;284;136613;-63
2023/08/19 08:50:45;;;;;;;4.50;4.10;;;;;;;30.61;51.33;100850.09;83942;284;26006;-63
2023/08/19 08:52:48;;;;;;;5.50;3.50;;;;;;;30.61;51.49;100853.28;83835;284;136374;-61
2023/08/19 08:54:54;;;;;;;3.40;3.20;;;;;;;30.60;51.41;100852.68;83978;284;25322;-64
2023/08/19 08:56:56;;;;;;;10.30;3.90;;;;;;;30.59;51.05;100851.73;83990;284;136409;-64
2023/08/19 08:58:58;;;;;;;4.10;3.60;;;;;;;30.56;51.50;100847.58;84047;284;23736;-65
2023/08/19 09:01:03;;;;;;;4.00;3.60;;;;;;;30.48;51.90;100851.10;84217;284;136354;-64
2023/08/19 09:03:07;;;;;;;6.10;3.50;;;;;;;30.42;51.84;100849.43;84121;284;25193;-67
2023/08/19 09:05:10;;;;;;;3.60;3.30;;;;;;;30.35;52.21;100850.02;84157;283;136225;-64
2023/08/19 09:07:33;;;;;;;3.40;3.20;;;;;;;30.31;52.31;100852.83;84033;283;25406;-64
2023/08/19 09:09:40;;;;;;;5.40;3.70;;;;;;;30.34;52.43;100850.43;84060;283;137471;-62
2023/08/19 09:11:47;;;;;;;7.30;3.50;;;;;;;30.40;52.47;100851.70;84044;284;22937;-63
2023/08/19 09:14:01;;;;;;;3.90;3.60;;;;;;;30.52;52.53;100844.64;84172;283;137976;-68
2023/08/19 09:16:03;;;;;;;3.70;3.50;;;;;;;30.60;51.91;100845.70;83997;284;138342;-62
2023/08/19 09:18:07;;;;;;;4.00;3.20;;;;;;;30.63;51.72;100846.18;84163;284;22580;-64
2023/08/19 09:20:12;;;;;;;4.90;3.30;;;;;;;30.60;51.82;100845.60;84116;284;137498;-65
2023/08/19 09:22:16;;;;;;;4.20;3.80;;;;;;;30.60;51.84;100844.34;84608;283;24403;-61
2023/08/19 09:24:18;;;;;;;5.00;3.50;;;;;;;30.63;51.31;100843.95;83962;284;136693;-64
2023/08/19 09:26:21;;;;;;;4.00;3.80;;;;;;;30.63;50.77;100841.96;84096;284;25224;-67
2023/08/19 09:28:23;;;;;;;5.40;3.40;;;;;;;30.56;50.24;100838.05;83985;284;137732;-63
2023/08/19 09:30:35;;;;;;;4.70;3.60;;;;;;;30.49;50.67;100839.90;84087;283;24970;-59
2023/08/19 09:32:38;;;;;;;3.50;3.20;;;;;;;30.44;50.81;100843.16;84097;283;136320;-61
2023/08/19 09:34:41;;;;;;;5.60;3.50;;;;;;;30.36;50.66;100844.61;84293;284;28162;-63
2023/08/19 09:36:43;;;;;;;3.20;3.00;;;;;;;30.31;50.76;100843.92;84115;283;136460;-63
2023/08/19 09:38:51;;;;;;;3.60;3.30;;;;;;;30.31;50.93;100838.76;84162;284;22606;-62